createdAt,value
2022-10-31T00:00:55.030Z,11.80
2022-10-31T00:05:17.945Z,11.60
2022-10-31T00:09:26.366Z,11.00
2022-10-31T00:13:34.282Z,12.10
2022-10-31T00:17:42.592Z,11.10
2022-10-31T00:21:51.025Z,10.70
2022-10-31T00:26:04.353Z,10.90
2022-10-31T00:30:13.922Z,11.10
2022-10-31T00:34:22.800Z,10.70
2022-10-31T00:38:31.219Z,11.20
2022-10-31T00:42:39.766Z,10.90
2022-10-31T00:46:47.839Z,10.00
2022-10-31T00:50:58.125Z,11.00
2022-10-31T00:55:07.210Z,10.50
2022-10-31T00:59:15.389Z,9.90
2022-10-31T01:03:23.309Z,10.80
2022-10-31T01:07:32.165Z,10.70
2022-10-31T01:11:40.815Z,11.20
2022-10-31T01:15:48.409Z,9.70
2022-10-31T01:19:56.146Z,9.80
2022-10-31T01:24:04.697Z,9.40
2022-10-31T01:28:12.894Z,9.70
2022-10-31T01:32:21.217Z,10.20
2022-10-31T01:36:32.173Z,10.00
2022-10-31T01:40:39.969Z,10.10
2022-10-31T01:45:03.091Z,9.40
2022-10-31T01:49:24.854Z,9.60
2022-10-31T01:53:32.935Z,9.80
2022-10-31T01:57:43.288Z,9.80
2022-10-31T02:01:52.331Z,10.40
2022-10-31T02:06:01.034Z,9.70
2022-10-31T02:10:10.331Z,9.20
2022-10-31T02:14:18.100Z,9.40
2022-10-31T02:18:27.989Z,9.10
2022-10-31T02:22:42.104Z,9.10
2022-10-31T02:27:06.826Z,8.70
2022-10-31T02:31:24.226Z,8.40
2022-10-31T02:35:45.087Z,7.60
2022-10-31T02:39:59.530Z,7.40
2022-10-31T02:44:12.096Z,7.90
2022-10-31T02:48:23.363Z,7.90
2022-10-31T02:52:33.144Z,7.90
2022-10-31T02:56:41.159Z,8.30
2022-10-31T03:00:58.392Z,7.00
2022-10-31T03:05:25.325Z,7.50
2022-10-31T03:09:40.183Z,7.10
2022-10-31T03:13:51.063Z,7.10
2022-10-31T03:18:03.532Z,6.80
2022-10-31T03:22:18.226Z,7.70
2022-10-31T03:26:27.719Z,7.30
2022-10-31T03:30:39.108Z,7.70
2022-10-31T03:34:48.348Z,7.60
2022-10-31T03:38:56.488Z,7.70
2022-10-31T03:43:08.708Z,7.50
2022-10-31T03:47:17.064Z,8.00
2022-10-31T03:51:30.973Z,8.00
2022-10-31T03:55:44.501Z,7.80
2022-10-31T03:59:55.875Z,7.20
2022-10-31T04:04:05.313Z,7.00
2022-10-31T04:08:19.900Z,7.50
2022-10-31T04:12:28.736Z,7.80
2022-10-31T04:16:37.134Z,6.90
2022-10-31T04:20:45.993Z,7.40
2022-10-31T04:24:54.207Z,7.50
2022-10-31T04:29:01.984Z,7.30
2022-10-31T04:33:09.676Z,7.20
2022-10-31T04:37:17.738Z,7.10
2022-10-31T04:41:25.690Z,7.20
2022-10-31T04:45:33.967Z,7.40
2022-10-31T04:49:41.656Z,7.80
2022-10-31T04:53:49.337Z,6.40
2022-10-31T04:57:57.172Z,6.10
2022-10-31T05:02:06.257Z,6.70
2022-10-31T05:06:17.803Z,7.20
2022-10-31T05:10:27.780Z,6.40
2022-10-31T05:14:36.549Z,6.80
2022-10-31T05:18:44.610Z,6.80
2022-10-31T05:22:54.875Z,6.70
2022-10-31T05:27:02.577Z,6.00
2022-10-31T05:31:13.436Z,5.80
2022-10-31T05:35:25.667Z,6.40
2022-10-31T05:39:37.171Z,6.30
2022-10-31T05:43:45.237Z,6.70
2022-10-31T05:47:57.479Z,7.00
2022-10-31T05:52:07.975Z,6.30
2022-10-31T05:56:19.177Z,6.30
2022-10-31T06:00:35.248Z,6.60
2022-10-31T06:04:50.650Z,7.50
2022-10-31T06:09:06.816Z,7.50
2022-10-31T06:13:16.505Z,7.40
2022-10-31T06:17:28.441Z,7.30
2022-10-31T06:21:41.206Z,7.40
2022-10-31T06:25:52.699Z,7.00
2022-10-31T06:30:00.748Z,6.90
2022-10-31T06:34:08.759Z,8.00
2022-10-31T06:38:16.595Z,7.80
2022-10-31T06:42:31.701Z,7.90
2022-10-31T06:46:42.919Z,7.90
2022-10-31T06:50:50.668Z,8.00
2022-10-31T06:54:59.440Z,8.30
2022-10-31T06:59:07.619Z,8.30
2022-10-31T07:03:16.859Z,6.80
2022-10-31T07:07:24.898Z,6.40
2022-10-31T07:11:34.284Z,7.00
2022-10-31T07:15:46.968Z,6.90
2022-10-31T07:19:57.880Z,7.40
2022-10-31T07:24:07.075Z,7.10
2022-10-31T07:28:16.967Z,7.60
2022-10-31T07:32:25.582Z,8.40
2022-10-31T07:36:33.728Z,8.10
2022-10-31T07:40:41.369Z,8.50
2022-10-31T07:44:51.469Z,7.60
2022-10-31T07:49:01.518Z,8.80
2022-10-31T07:53:11.057Z,8.60
2022-10-31T07:57:22.768Z,9.00
2022-10-31T08:01:33.320Z,8.80
2022-10-31T08:05:42.201Z,8.20
2022-10-31T08:09:50.295Z,8.00
2022-10-31T08:13:58.458Z,7.70
2022-10-31T08:18:06.071Z,7.90
2022-10-31T08:22:14.230Z,7.80
2022-10-31T08:26:21.991Z,6.90
2022-10-31T08:30:31.795Z,6.40
2022-10-31T08:34:39.740Z,6.30
2022-10-31T08:38:48.088Z,5.50
2022-10-31T08:43:04.512Z,6.60
2022-10-31T08:47:12.596Z,7.20
2022-10-31T08:51:20.625Z,5.80
2022-10-31T08:55:30.809Z,4.70
2022-10-31T08:59:38.319Z,4.40
2022-10-31T09:03:45.901Z,4.00
2022-10-31T09:07:55.813Z,3.70
2022-10-31T09:12:04.215Z,3.70
2022-10-31T09:16:12.703Z,4.20
2022-10-31T09:20:22.313Z,3.80
2022-10-31T09:24:30.466Z,3.60
2022-10-31T09:28:38.062Z,4.00
2022-10-31T09:32:45.664Z,3.50
2022-10-31T09:36:53.420Z,3.60
2022-10-31T09:41:08.782Z,3.40
2022-10-31T09:45:23.548Z,3.70
2022-10-31T09:49:46.015Z,3.60
2022-10-31T09:53:56.242Z,3.30
2022-10-31T09:58:05.092Z,3.60
2022-10-31T10:02:19.907Z,3.70
2022-10-31T10:06:30.112Z,3.40
2022-10-31T10:10:46.941Z,3.80
2022-10-31T10:15:08.439Z,3.60
2022-10-31T10:19:32.286Z,3.50
2022-10-31T10:23:49.183Z,4.00
2022-10-31T10:28:07.410Z,3.60
2022-10-31T10:32:20.318Z,3.60
2022-10-31T10:36:35.852Z,4.00
2022-10-31T10:40:43.267Z,4.00
2022-10-31T10:45:10.068Z,3.70
2022-10-31T10:49:25.580Z,4.20
2022-10-31T10:54:04.221Z,4.00
2022-10-31T10:58:16.010Z,4.20
2022-10-31T11:02:25.547Z,3.60
2022-10-31T11:06:34.963Z,3.80
2022-10-31T11:10:42.922Z,3.80
2022-10-31T11:14:52.406Z,4.10
2022-10-31T11:19:11.469Z,3.90
2022-10-31T11:23:24.675Z,4.40
2022-10-31T11:27:32.865Z,4.30
2022-10-31T11:31:40.624Z,4.10
2022-10-31T11:35:49.927Z,3.90
2022-10-31T11:40:06.331Z,4.30
2022-10-31T11:44:17.900Z,4.20
2022-10-31T11:48:26.686Z,3.90
2022-10-31T11:52:36.635Z,4.40
2022-10-31T11:56:46.453Z,3.60
2022-10-31T12:00:56.581Z,4.10
2022-10-31T12:05:10.596Z,3.60
2022-10-31T12:09:26.668Z,4.20
2022-10-31T12:13:39.201Z,4.60
2022-10-31T12:17:50.719Z,4.50
2022-10-31T12:22:10.444Z,4.70
2022-10-31T12:26:23.647Z,4.70
2022-10-31T12:30:35.212Z,4.40
2022-10-31T12:35:08.422Z,4.80
2022-10-31T12:39:35.242Z,4.70
2022-10-31T12:43:49.282Z,4.80
2022-10-31T12:48:10.137Z,4.60
2022-10-31T12:52:35.164Z,4.90
2022-10-31T12:56:50.829Z,5.10
2022-10-31T13:01:09.334Z,4.80
2022-10-31T13:05:22.338Z,5.00
2022-10-31T13:09:34.337Z,5.50
2022-10-31T13:13:45.438Z,4.80
2022-10-31T13:17:54.448Z,4.60
2022-10-31T13:22:09.098Z,5.20
2022-10-31T13:26:21.986Z,4.90
2022-10-31T13:30:31.717Z,5.20
2022-10-31T13:34:42.042Z,4.70
2022-10-31T13:38:53.373Z,5.10
2022-10-31T13:43:05.736Z,5.10
2022-10-31T13:47:28.699Z,4.60
2022-10-31T13:51:37.600Z,5.00
2022-10-31T13:55:47.011Z,4.90
2022-10-31T13:59:56.731Z,5.60
2022-10-31T14:04:14.795Z,5.70
2022-10-31T14:08:26.030Z,5.70
2022-10-31T14:12:37.880Z,5.70
2022-10-31T14:16:49.886Z,5.10
2022-10-31T14:20:59.726Z,5.90
2022-10-31T14:25:41.531Z,5.60
2022-10-31T14:29:50.769Z,5.30
2022-10-31T14:33:59.408Z,6.50
2022-10-31T14:38:33.875Z,5.80
2022-10-31T14:42:54.861Z,6.30
2022-10-31T14:47:08.152Z,6.40
2022-10-31T14:51:20.506Z,6.10
2022-10-31T14:55:28.987Z,6.70
2022-10-31T14:59:40.011Z,6.50
2022-10-31T15:04:17.702Z,6.30
2022-10-31T15:08:33.509Z,6.60
2022-10-31T15:12:40.759Z,6.70
2022-10-31T15:16:49.102Z,8.50
2022-10-31T15:20:57.718Z,12.60
2022-10-31T15:25:05.521Z,13.90
2022-10-31T15:29:18.344Z,33.90
2022-10-31T15:33:27.804Z,30.80
2022-10-31T15:37:35.644Z,17.00
2022-10-31T15:41:54.426Z,17.50
2022-10-31T15:46:03.927Z,10.40
2022-10-31T15:50:24.983Z,8.00
2022-10-31T15:54:33.611Z,8.20
2022-10-31T15:58:48.229Z,7.30
2022-10-31T16:03:06.863Z,9.90
2022-10-31T16:07:23.579Z,12.80
2022-10-31T16:11:38.484Z,12.90
2022-10-31T16:16:32.770Z,9.70
2022-10-31T16:20:33.150Z,10.00
2022-10-31T16:24:47.679Z,9.60
2022-10-31T16:29:04.893Z,9.40
2022-10-31T16:33:29.085Z,7.60
2022-10-31T16:37:39.796Z,6.20
2022-10-31T16:41:49.020Z,5.50
2022-10-31T16:45:57.234Z,5.40
2022-10-31T16:50:08.061Z,6.60
2022-10-31T16:54:15.993Z,6.90
2022-10-31T16:58:26.905Z,8.60
2022-10-31T17:02:34.528Z,11.50
2022-10-31T17:06:42.637Z,14.40
2022-10-31T17:10:52.832Z,14.10
2022-10-31T17:15:01.472Z,14.60
2022-10-31T17:19:09.819Z,16.70
2022-10-31T17:23:19.884Z,18.30
2022-10-31T17:27:28.335Z,18.00
2022-10-31T17:31:39.494Z,15.80
2022-10-31T17:35:47.825Z,14.20
2022-10-31T17:39:55.733Z,15.30
2022-10-31T17:44:03.381Z,17.10
2022-10-31T17:48:13.315Z,17.00
2022-10-31T17:52:21.522Z,18.40
2022-10-31T17:56:30.218Z,16.40
2022-10-31T18:00:38.091Z,17.40
2022-10-31T18:04:46.546Z,18.70
2022-10-31T18:08:56.509Z,19.80
2022-10-31T18:13:04.667Z,20.30
2022-10-31T18:17:12.981Z,21.00
2022-10-31T18:21:21.029Z,26.20
2022-10-31T18:25:28.969Z,24.70
2022-10-31T18:29:37.059Z,25.30
2022-10-31T18:33:44.806Z,19.50
2022-10-31T18:37:53.147Z,17.10
2022-10-31T18:42:00.939Z,16.90
2022-10-31T18:46:11.108Z,16.70
2022-10-31T18:50:19.452Z,14.70
2022-10-31T18:54:27.525Z,23.20
2022-10-31T18:58:36.277Z,26.30
2022-10-31T19:02:43.768Z,16.80
2022-10-31T19:06:52.171Z,15.90
2022-10-31T19:11:00.402Z,13.10
2022-10-31T19:15:09.701Z,11.70
2022-10-31T19:19:17.388Z,11.10
2022-10-31T19:23:26.597Z,13.10
2022-10-31T19:27:34.000Z,12.10
2022-10-31T19:31:42.011Z,11.90
2022-10-31T19:35:49.657Z,12.80
2022-10-31T19:39:57.570Z,13.20
2022-10-31T19:44:05.956Z,13.70
2022-10-31T19:48:13.418Z,15.60
2022-10-31T19:52:21.492Z,14.80
2022-10-31T19:56:29.255Z,11.80
2022-10-31T20:00:40.629Z,12.60
2022-10-31T20:04:48.663Z,13.40
2022-10-31T20:08:57.425Z,13.80
2022-10-31T20:13:05.458Z,14.60
2022-10-31T20:17:13.414Z,12.00
2022-10-31T20:21:23.288Z,12.30
2022-10-31T20:25:31.890Z,11.60
2022-10-31T20:29:40.050Z,11.20
2022-10-31T20:33:48.484Z,11.50
2022-10-31T20:37:58.373Z,11.50
2022-10-31T20:42:06.501Z,11.70
2022-10-31T20:46:17.778Z,12.00
2022-10-31T20:50:26.013Z,11.30
2022-10-31T20:54:33.906Z,11.40
2022-10-31T20:58:42.501Z,10.40
2022-10-31T21:02:51.361Z,11.10
2022-10-31T21:06:59.982Z,11.60
2022-10-31T21:11:11.372Z,12.70
2022-10-31T21:15:19.770Z,15.50
2022-10-31T21:19:28.545Z,14.80
2022-10-31T21:23:37.400Z,15.80
2022-10-31T21:27:45.676Z,17.30
2022-10-31T21:31:54.816Z,16.50
2022-10-31T21:36:02.698Z,15.70
2022-10-31T21:40:12.078Z,13.80
2022-10-31T21:44:20.039Z,14.30
2022-10-31T21:48:29.643Z,14.10
2022-10-31T21:52:37.434Z,13.90
2022-10-31T21:56:45.791Z,13.70
2022-10-31T22:00:54.174Z,13.50
2022-10-31T22:05:02.741Z,14.50
2022-10-31T22:09:12.867Z,14.40
2022-10-31T22:13:21.331Z,13.70
2022-10-31T22:17:29.035Z,14.50
2022-10-31T22:21:40.148Z,12.70
2022-10-31T22:25:49.093Z,14.30
2022-10-31T22:29:57.361Z,14.10
2022-10-31T22:34:05.026Z,14.20
2022-10-31T22:38:12.946Z,14.00
2022-10-31T22:42:21.097Z,14.90
2022-10-31T22:46:31.545Z,15.20
2022-10-31T22:50:41.421Z,16.00
2022-10-31T22:54:50.004Z,16.60
2022-10-31T22:58:58.434Z,15.80
2022-10-31T23:03:07.113Z,16.80
2022-10-31T23:07:15.271Z,16.60
2022-10-31T23:11:25.717Z,16.30
2022-10-31T23:15:35.173Z,15.30
2022-10-31T23:19:42.957Z,15.50
2022-10-31T23:23:51.525Z,15.00
2022-10-31T23:27:59.553Z,13.30
2022-10-31T23:32:09.460Z,12.60
2022-10-31T23:36:17.115Z,13.20
2022-10-31T23:40:24.989Z,14.80
2022-10-31T23:44:32.828Z,14.40
2022-10-31T23:48:43.116Z,14.50
2022-10-31T23:52:50.990Z,13.70
2022-10-31T23:56:59.569Z,13.70
